Flight Track Log - Related Links

Times and Time Zones

All times are in EDT time to prevent confusion due to time zone crossing. See the EGC695 flight status page for this flight to view local times or setup timezone preferences in your user account.


Time Position Orientation Groundspeed Altitude Reporting Facility
EDT Latitude Longitude Course Direction KTS MPH feet Rate Location/Type
Tue 01:56:00 PM 41.5236 -83.8628 213° Southwest  Level FlightAware Approximate
Tue 01:57:00 PM 41.4577 -83.9089 217° Southwest  Level FlightAware Approximate
Tue 01:58:00 PM 41.3974 -83.9693 217° Southwest  Level FlightAware Approximate
Tue 01:59:00 PM 41.3363 -84.0281 212° Southwest  Level FlightAware Approximate
Tue 02:00:00 PM 41.2724 -84.0814 212° Southwest  Level FlightAware Approximate
Tue 02:01:00 PM 41.2267 -84.1530 256° West  Level FlightAware Approximate
Tue 02:02:00 PM 41.2090 -84.2505 256° West  Level FlightAware Approximate
Tue 02:03:00 PM 41.1850 -84.3451 246° West  Level FlightAware Approximate
Tue 02:04:00 PM 41.1601 -84.4391 258° West  Level FlightAware Approximate
Tue 02:05:00 PM 41.1410 -84.5359 252° West  Level FlightAware Approximate
Tue 02:06:00 PM 41.1173 -84.6309 252° West  Level FlightAware Approximate
Tue 02:07:00 PM 41.0927 -84.7255 249° West  Level FlightAware Approximate
Tue 02:08:00 PM 41.0660 -84.8191 249° West  Level FlightAware Approximate
Tue 02:09:00 PM 41.0393 -84.9126 249° West  Level FlightAware Approximate
Tue 02:10:00 PM 41.0138 -85.0067 251° West  Level FlightAware Approximate
Tue 02:11:00 PM 40.9887 -85.1009 251° West  Level FlightAware Approximate
Tue 02:12:00 PM 40.9592 -85.1909 217° Southwest  Level FlightAware Approximate
Tue 02:13:00 PM 40.8991 -85.2511 217° Southwest  Level FlightAware Approximate
Tue 02:14:00 PM 40.8389 -85.3113 217° Southwest  Level FlightAware Approximate
Tue 02:15:00 PM 40.7787 -85.3713 217° Southwest  Level FlightAware Approximate
Tue 02:16:00 PM 40.7206 -85.4347 220° Southwest  Level FlightAware Approximate
Tue 02:17:00 PM 40.6629 -85.4987 220° Southwest  Level FlightAware Approximate
Tue 02:18:00 PM 40.6033 -85.5589 207° Southwest  Level FlightAware Approximate
Tue 02:19:00 PM 40.5468 -85.6199 217° Southwest  Level FlightAware Approximate
Tue 02:20:00 PM 40.4867 -85.6799 217° Southwest  Level FlightAware Approximate
Tue 02:21:00 PM 40.4267 -85.7400 217° Southwest  Level FlightAware Approximate
Tue 02:22:00 PM 40.3667 -85.8000 217° Southwest  Level FlightAware Approximate
Tue 02:23:00 PM 40.3068 -85.8599 217° Southwest  Level FlightAware Approximate
Tue 02:24:00 PM 40.2468 -85.9200 217° Southwest  Level FlightAware Approximate
Tue 02:25:00 PM 40.1869 -85.9799 217° Southwest  Level FlightAware Approximate
Tue 02:26:00 PM 40.1252 -86.0289 229° Southwest  Level FlightAware Approximate
Tue 02:27:00 PM 40.0688 -86.0927 213° Southwest  Level FlightAware Approximate
Tue 02:28:00 PM 40.0052 -86.1457 213° Southwest  Level FlightAware Approximate
Tue 02:29:00 PM 39.9416 -86.1917 217° Southwest  Level FlightAware Approximate
Tue 02:30:00 PM 39.8770 -86.2423 210° Southwest  Level FlightAware Approximate
Tue 02:31:00 PM 39.8167 -86.2833 207° Southwest  Level FlightAware Approximate
Tue 02:32:00 PM 39.8308 -86.2944 207° Southwest  Level Estimated
Tue 02:33:00 PM 39.8308 -86.2944 207° Southwest  Level Estimated
Tue 02:34:00 PM 39.8308 -86.2944 207° Southwest  Level Estimated
Tue 02:35:00 PM 39.8308 -86.2944 207° Southwest  Level Estimated
Tue 02:36:00 PM 39.8308 -86.2944 207° Southwest  Level Estimated
Tue 02:37:00 PM 39.8308 -86.2944 207° Southwest  Level Estimated
Tue 02:38:00 PM 39.8308 -86.2944 207° Southwest  Level Estimated
Tue 02:39:00 PM 39.8308 -86.2944 207° Southwest  Level Estimated
Tue 02:40:00 PM 39.8308 -86.2944 207° Southwest  Level Estimated
Tue 02:41:00 PM 39.8308 -86.2944 207° Southwest  Level Estimated
Tue 02:42:00 PM 39.8308 -86.2944 207° Southwest  Level Estimated
Tue 02:43:00 PM 39.8308 -86.2944 207° Southwest  Level Estimated
Tue 02:44:00 PM 39.8308 -86.2944 207° Southwest  Level Estimated
Tue 02:45:00 PM 39.8308 -86.2944 207° Southwest  Level Estimated
Tue 02:46:00 PM 39.8308 -86.2944 207° Southwest  Level Estimated

Login

Don't have an account? Register now (free) for customized features, flight alerts, and more!